createdAt,value
2019-01-10T00:00:17.155Z,98627.81
2019-01-10T00:02:51.054Z,98633.88
2019-01-10T00:05:28.065Z,98634.66
2019-01-10T00:07:58.187Z,98634.22
2019-01-10T00:10:28.453Z,98637.30
2019-01-10T00:12:57.450Z,98639.03
2019-01-10T00:15:26.424Z,98645.49
2019-01-10T00:17:55.493Z,98646.78
2019-01-10T00:20:24.474Z,98643.75
2019-01-10T00:22:53.471Z,98645.07
2019-01-10T00:25:22.481Z,98651.92
2019-01-10T00:27:51.650Z,98657.53
2019-01-10T00:30:20.574Z,98657.11
2019-01-10T00:32:49.530Z,98651.08
2019-01-10T00:35:20.020Z,98657.56
2019-01-10T00:37:49.060Z,98655.48
2019-01-10T00:40:18.132Z,98659.78
2019-01-10T00:42:49.648Z,98665.31
2019-01-10T00:45:18.207Z,98670.11
2019-01-10T00:47:47.179Z,98673.50
2019-01-10T00:50:18.159Z,98677.75
2019-01-10T00:52:47.213Z,98681.20
2019-01-10T00:55:16.046Z,98682.91
2019-01-10T00:57:45.142Z,98688.10
2019-01-10T01:00:21.221Z,98689.00
2019-01-10T01:02:50.159Z,98694.25
2019-01-10T01:05:19.465Z,98700.27
2019-01-10T01:07:48.355Z,98701.91
2019-01-10T01:10:19.467Z,98705.34
2019-01-10T01:12:48.473Z,98703.98
2019-01-10T01:15:17.996Z,98706.63
2019-01-10T01:17:47.059Z,98710.05
2019-01-10T01:20:20.074Z,98713.53
2019-01-10T01:22:49.394Z,98717.50
2019-01-10T01:25:18.474Z,98718.34
2019-01-10T01:27:47.494Z,98725.25
2019-01-10T01:30:22.497Z,98736.45
2019-01-10T01:32:51.447Z,98733.02
2019-01-10T01:35:21.690Z,98739.90
2019-01-10T01:37:50.827Z,98745.13
2019-01-10T01:40:20.187Z,98749.45
2019-01-10T01:42:49.107Z,98754.16
2019-01-10T01:45:21.604Z,98752.57
2019-01-10T01:47:54.514Z,98759.88
2019-01-10T01:50:28.061Z,98756.02
2019-01-10T01:53:00.757Z,98760.27
2019-01-10T01:55:30.659Z,98765.06
2019-01-10T01:58:04.543Z,98762.45
2019-01-10T02:00:34.760Z,98765.94
2019-01-10T02:03:04.484Z,98773.20
2019-01-10T02:05:34.245Z,98774.47
2019-01-10T02:08:17.090Z,98774.86
2019-01-10T02:10:46.645Z,98785.73
2019-01-10T02:13:32.791Z,98781.37
2019-01-10T02:16:05.671Z,98783.09
2019-01-10T02:18:41.668Z,98794.80
2019-01-10T02:21:17.714Z,98788.28
2019-01-10T02:23:49.969Z,98799.81
2019-01-10T02:26:32.088Z,98798.17
2019-01-10T02:29:01.768Z,98806.27
2019-01-10T02:31:42.650Z,98795.94
2019-01-10T02:34:12.029Z,98809.69
2019-01-10T02:36:41.055Z,98805.37
2019-01-10T02:39:09.984Z,98805.37
2019-01-10T02:41:39.351Z,98806.27
2019-01-10T02:44:11.899Z,98809.34
2019-01-10T02:46:41.512Z,98808.86
2019-01-10T02:49:10.469Z,98813.21
2019-01-10T02:51:39.499Z,98813.21
2019-01-10T02:54:08.440Z,98826.48
2019-01-10T02:56:37.461Z,98814.50
2019-01-10T02:59:07.268Z,98820.96
2019-01-10T03:01:36.208Z,98817.95
2019-01-10T03:04:05.394Z,98824.05
2019-01-10T03:06:35.541Z,98810.63
2019-01-10T03:09:08.890Z,98818.44
2019-01-10T03:11:38.113Z,98814.80
2019-01-10T03:14:07.201Z,98820.87
2019-01-10T03:16:36.276Z,98816.55
2019-01-10T03:19:05.589Z,98825.19
2019-01-10T03:21:34.702Z,98826.48
2019-01-10T03:24:03.703Z,98830.81
2019-01-10T03:26:32.781Z,98823.55
2019-01-10T03:29:05.335Z,98825.19
2019-01-10T03:31:34.294Z,98833.94
2019-01-10T03:34:03.232Z,98832.20
2019-01-10T03:36:32.326Z,98835.48
2019-01-10T03:39:01.440Z,98833.81
2019-01-10T03:41:30.308Z,98844.59
2019-01-10T03:43:59.250Z,98839.84
2019-01-10T03:46:28.212Z,98845.02
2019-01-10T03:48:57.339Z,98844.66
2019-01-10T03:51:27.580Z,98842.53
2019-01-10T03:53:59.866Z,98846.79
2019-01-10T03:56:28.876Z,98851.89
2019-01-10T03:58:57.914Z,98842.91
2019-01-10T04:01:27.056Z,98844.27
2019-01-10T04:03:56.412Z,98853.77
2019-01-10T04:06:25.499Z,98855.47
2019-01-10T04:08:54.629Z,98854.16
2019-01-10T04:11:23.693Z,98854.60
2019-01-10T04:13:57.553Z,98859.77
2019-01-10T04:16:23.547Z,98854.05
2019-01-10T04:18:52.655Z,98854.44
2019-01-10T04:21:22.252Z,98856.55
2019-01-10T04:23:55.971Z,98858.25
2019-01-10T04:26:26.060Z,98858.25
2019-01-10T04:28:55.191Z,98867.75
2019-01-10T04:31:24.169Z,98870.72
2019-01-10T04:33:53.183Z,98882.27
2019-01-10T04:36:22.108Z,98882.23
2019-01-10T04:38:51.254Z,98880.05
2019-01-10T04:41:20.806Z,98885.59
2019-01-10T04:43:49.886Z,98870.06
2019-01-10T04:46:19.936Z,98878.30
2019-01-10T04:48:48.918Z,98883.39
2019-01-10T04:51:17.962Z,98885.56
2019-01-10T04:53:46.869Z,98889.86
2019-01-10T04:56:15.818Z,98892.79
2019-01-10T04:58:44.784Z,98890.20
2019-01-10T05:01:13.807Z,98892.79
2019-01-10T05:03:42.758Z,98890.59
2019-01-10T05:06:11.738Z,98897.05
2019-01-10T05:08:40.701Z,98894.02
2019-01-10T05:11:11.335Z,98892.27
2019-01-10T05:13:42.187Z,98897.89
2019-01-10T05:16:11.874Z,98897.44
2019-01-10T05:18:41.391Z,98900.02
2019-01-10T05:21:10.261Z,98900.89
2019-01-10T05:23:39.271Z,98908.88
2019-01-10T05:26:08.290Z,98910.17
2019-01-10T05:28:38.243Z,98906.69
2019-01-10T05:31:08.934Z,98907.42
2019-01-10T05:33:37.933Z,98910.42
2019-01-10T05:36:06.872Z,98912.97
2019-01-10T05:38:35.810Z,98913.80
2019-01-10T05:41:08.362Z,98919.80
2019-01-10T05:43:37.497Z,98922.77
2019-01-10T05:46:06.549Z,98917.08
2019-01-10T05:48:37.018Z,98923.50
2019-01-10T05:51:06.395Z,98924.33
2019-01-10T05:53:35.287Z,98935.39
2019-01-10T05:56:04.591Z,98929.73
2019-01-10T05:58:33.554Z,98934.97
2019-01-10T06:01:02.555Z,98934.06
2019-01-10T06:03:31.464Z,98943.06
2019-01-10T06:06:00.422Z,98947.00
2019-01-10T06:08:29.494Z,98943.13
2019-01-10T06:10:58.350Z,98947.48
2019-01-10T06:13:27.302Z,98954.75
2019-01-10T06:15:56.203Z,98964.72
2019-01-10T06:18:25.029Z,98960.84
2019-01-10T06:20:53.914Z,98964.30
2019-01-10T06:23:22.755Z,98968.14
2019-01-10T06:25:51.700Z,98969.88
2019-01-10T06:28:20.586Z,98972.50
2019-01-10T06:30:49.516Z,98974.63
2019-01-10T06:33:18.465Z,98981.95
2019-01-10T06:35:47.474Z,98981.81
2019-01-10T06:38:16.400Z,98988.60
2019-01-10T06:41:26.456Z,98986.86
2019-01-10T06:44:04.624Z,98988.49
2019-01-10T06:46:36.968Z,98990.55
2019-01-10T06:49:11.289Z,98995.73
2019-01-10T06:51:44.295Z,98999.23
2019-01-10T06:54:18.250Z,99002.16
2019-01-10T06:56:54.364Z,99007.77
2019-01-10T06:59:33.260Z,99012.85
2019-01-10T07:02:09.528Z,99014.14
2019-01-10T07:04:41.455Z,99018.09
2019-01-10T07:07:12.066Z,99023.70
2019-01-10T07:09:45.186Z,99019.76
2019-01-10T07:12:14.526Z,99023.94
2019-01-10T07:14:53.400Z,99024.81
2019-01-10T07:17:16.628Z,99027.77
2019-01-10T07:19:46.688Z,99028.22
2019-01-10T07:22:18.422Z,99032.51
2019-01-10T07:24:56.809Z,99033.84
2019-01-10T07:27:26.276Z,99030.84
2019-01-10T07:29:56.923Z,99042.83
2019-01-10T07:32:26.192Z,99044.16
2019-01-10T07:35:03.107Z,99051.78
2019-01-10T07:37:32.010Z,99054.86
2019-01-10T07:40:02.334Z,99051.41
2019-01-10T07:42:35.454Z,99062.10
2019-01-10T07:45:11.244Z,99062.06
2019-01-10T07:47:50.626Z,99065.47
2019-01-10T07:50:30.887Z,99062.06
2019-01-10T07:53:01.634Z,99068.14
2019-01-10T07:55:31.189Z,99064.19
2019-01-10T07:58:00.402Z,99075.84
2019-01-10T08:00:30.245Z,99082.70
2019-01-10T08:03:00.403Z,99078.45
2019-01-10T08:05:31.090Z,99086.61
2019-01-10T08:08:00.169Z,99081.34
2019-01-10T08:10:29.334Z,99087.91
2019-01-10T08:12:59.620Z,99097.72
2019-01-10T08:15:29.625Z,99105.84
2019-01-10T08:17:59.659Z,99112.25
2019-01-10T08:20:29.808Z,99119.53
2019-01-10T08:23:00.405Z,99127.78
2019-01-10T08:25:31.077Z,99131.10
2019-01-10T08:28:02.105Z,99129.86
2019-01-10T08:30:33.045Z,99138.88
2019-01-10T08:33:05.805Z,99138.88
2019-01-10T08:35:39.854Z,99142.05
2019-01-10T08:38:11.332Z,99145.50
2019-01-10T08:40:46.674Z,99147.66
2019-01-10T08:43:21.497Z,99148.08
2019-01-10T08:45:51.618Z,99147.25
2019-01-10T08:48:23.710Z,99150.33
2019-01-10T08:50:55.641Z,99152.66
2019-01-10T08:53:34.481Z,99161.23
2019-01-10T08:56:09.540Z,99162.14
2019-01-10T08:58:43.464Z,99168.27
2019-01-10T09:01:18.959Z,99165.39
2019-01-10T09:03:53.162Z,99174.14
2019-01-10T09:06:26.781Z,99175.38
2019-01-10T09:08:58.700Z,99175.80
2019-01-10T09:11:38.107Z,99175.02
2019-01-10T09:14:08.232Z,99178.37
2019-01-10T09:16:38.068Z,99183.24
2019-01-10T09:19:08.096Z,99180.70
2019-01-10T09:21:37.935Z,99183.08
2019-01-10T09:24:07.009Z,99183.78
2019-01-10T09:26:37.703Z,99179.74
2019-01-10T09:29:07.070Z,99176.96
2019-01-10T09:31:36.136Z,99179.33
2019-01-10T09:34:05.064Z,99184.53
2019-01-10T09:36:34.156Z,99189.70
2019-01-10T09:39:04.088Z,99192.28
2019-01-10T09:41:33.207Z,99192.61
2019-01-10T09:44:02.231Z,99192.06
2019-01-10T09:46:38.585Z,99192.69
2019-01-10T09:49:07.696Z,99198.89
2019-01-10T09:51:36.920Z,99199.44
2019-01-10T09:54:06.076Z,99201.97
2019-01-10T09:56:35.717Z,99195.04
2019-01-10T09:59:04.832Z,99202.41
2019-01-10T10:01:35.127Z,99202.15
2019-01-10T10:04:04.261Z,99203.90
2019-01-10T10:06:34.550Z,99211.70
2019-01-10T10:09:04.420Z,99211.91
2019-01-10T10:11:34.156Z,99206.74
2019-01-10T10:14:03.814Z,99216.66
2019-01-10T10:16:33.212Z,99208.49
2019-01-10T10:19:02.170Z,99224.48
2019-01-10T10:21:31.315Z,99214.23
2019-01-10T10:24:00.475Z,99209.98
2019-01-10T10:26:29.480Z,99220.39
2019-01-10T10:28:58.662Z,99222.45
2019-01-10T10:31:27.836Z,99219.49
2019-01-10T10:33:58.209Z,99225.77
2019-01-10T10:36:29.937Z,99227.02
2019-01-10T10:38:59.363Z,99218.62
2019-01-10T10:41:28.411Z,99229.61
2019-01-10T10:43:57.526Z,99218.78
2019-01-10T10:46:27.887Z,99220.03
2019-01-10T10:48:56.854Z,99221.74
2019-01-10T10:51:26.040Z,99215.13
2019-01-10T10:53:55.261Z,99225.05
2019-01-10T10:56:24.586Z,99225.02
2019-01-10T10:58:53.810Z,99219.77
2019-01-10T11:01:23.239Z,99227.52
2019-01-10T11:03:52.555Z,99232.50
2019-01-10T11:06:21.618Z,99225.27
2019-01-10T11:08:50.950Z,99228.42
2019-01-10T11:11:20.223Z,99221.23
2019-01-10T11:13:49.648Z,99222.08
2019-01-10T11:16:18.850Z,99222.42
2019-01-10T11:18:48.028Z,99227.06
2019-01-10T11:21:17.174Z,99227.20
2019-01-10T11:23:46.285Z,99217.70
2019-01-10T11:26:15.758Z,99221.17
2019-01-10T11:28:58.847Z,99224.63
2019-01-10T11:31:32.141Z,99216.84
2019-01-10T11:34:07.392Z,99214.67
2019-01-10T11:36:40.140Z,99209.50
2019-01-10T11:39:13.956Z,99206.58
2019-01-10T11:41:47.247Z,99204.83
2019-01-10T11:44:22.703Z,99207.48
2019-01-10T11:46:54.514Z,99199.81
2019-01-10T11:49:25.795Z,99201.80
2019-01-10T11:51:58.410Z,99201.94
2019-01-10T11:54:31.338Z,99199.17
2019-01-10T11:57:06.264Z,99202.09
2019-01-10T11:59:39.133Z,99200.20
2019-01-10T12:02:11.366Z,99197.61
2019-01-10T12:04:44.961Z,99199.73
2019-01-10T12:07:17.617Z,99198.03
2019-01-10T12:09:49.724Z,99199.17
2019-01-10T12:12:25.011Z,99198.83
2019-01-10T12:14:54.549Z,99192.25
2019-01-10T12:17:23.748Z,99197.80
2019-01-10T12:19:54.957Z,99199.47
2019-01-10T12:22:25.505Z,99191.80
2019-01-10T12:25:04.129Z,99190.66
2019-01-10T12:27:41.894Z,99194.75
2019-01-10T12:30:16.372Z,99191.27
2019-01-10T12:32:52.448Z,99194.75
2019-01-10T12:35:27.145Z,99195.94
2019-01-10T12:37:57.265Z,99197.23
2019-01-10T12:40:32.449Z,99197.69
2019-01-10T12:43:02.225Z,99195.09
2019-01-10T12:45:31.590Z,99199.20
2019-01-10T12:48:12.498Z,99199.28
2019-01-10T12:50:54.552Z,99198.52
2019-01-10T12:53:34.766Z,99197.27
2019-01-10T12:56:15.349Z,99200.73
2019-01-10T12:58:55.530Z,99200.20
2019-01-10T13:01:26.187Z,99205.17
2019-01-10T13:03:58.322Z,99204.33
2019-01-10T13:06:32.271Z,99208.33
2019-01-10T13:09:04.658Z,99208.36
2019-01-10T13:11:36.459Z,99214.78
2019-01-10T13:14:05.932Z,99212.05
2019-01-10T13:16:36.117Z,99215.31
2019-01-10T13:19:08.934Z,99213.03
2019-01-10T13:21:40.931Z,99208.70
2019-01-10T13:24:25.981Z,99212.12
2019-01-10T13:26:58.710Z,99206.56
2019-01-10T13:29:30.610Z,99220.61
2019-01-10T13:32:02.886Z,99209.70
2019-01-10T13:34:38.528Z,99216.87
2019-01-10T13:37:13.833Z,99218.17
2019-01-10T13:39:46.942Z,99222.87
2019-01-10T13:42:20.005Z,99226.79
2019-01-10T13:44:55.327Z,99227.83
2019-01-10T13:47:29.227Z,99232.83
2019-01-10T13:50:03.179Z,99233.38
2019-01-10T13:52:36.643Z,99239.83
2019-01-10T13:55:10.507Z,99233.00
2019-01-10T13:57:43.965Z,99231.25
2019-01-10T14:00:22.093Z,99232.75
2019-01-10T14:02:57.098Z,99233.50
2019-01-10T14:05:28.536Z,99234.66
2019-01-10T14:08:04.879Z,99238.25
2019-01-10T14:10:39.656Z,99234.46
2019-01-10T14:13:17.729Z,99235.20
2019-01-10T14:15:51.666Z,99242.12
2019-01-10T14:18:24.003Z,99237.63
2019-01-10T14:20:55.959Z,99236.50
2019-01-10T14:23:27.864Z,99245.83
2019-01-10T14:25:59.525Z,99247.91
2019-01-10T14:28:32.757Z,99243.58
2019-01-10T14:31:05.650Z,99249.48
2019-01-10T14:33:39.109Z,99244.40
2019-01-10T14:36:12.030Z,99247.86
2019-01-10T14:38:46.381Z,99247.55
2019-01-10T14:41:25.545Z,99251.55
2019-01-10T14:43:59.830Z,99256.58
2019-01-10T14:46:31.233Z,99249.80
2019-01-10T14:49:00.988Z,99251.01
2019-01-10T14:51:36.049Z,99263.82
2019-01-10T14:54:08.713Z,99256.70
2019-01-10T14:56:45.739Z,99265.28
2019-01-10T14:59:18.185Z,99263.16
2019-01-10T15:01:50.077Z,99262.84
2019-01-10T15:04:19.052Z,99269.70
2019-01-10T15:06:50.961Z,99260.58
2019-01-10T15:09:23.543Z,99270.07
2019-01-10T15:11:57.876Z,99272.66
2019-01-10T15:14:28.844Z,99273.58
2019-01-10T15:17:00.217Z,99271.73
2019-01-10T15:19:34.597Z,99273.73
2019-01-10T15:22:08.462Z,99283.59
2019-01-10T15:24:40.405Z,99279.13
2019-01-10T15:27:12.566Z,99273.64
2019-01-10T15:29:47.537Z,99278.67
2019-01-10T15:32:20.794Z,99279.50
2019-01-10T15:34:55.931Z,99277.75
2019-01-10T15:37:57.189Z,99280.73
2019-01-10T15:40:31.417Z,99282.81
2019-01-10T15:43:03.328Z,99287.38
2019-01-10T15:45:34.098Z,99283.20
2019-01-10T15:48:05.760Z,99289.78
2019-01-10T15:50:37.852Z,99290.98
2019-01-10T15:53:11.178Z,99290.52
2019-01-10T15:55:45.449Z,99284.11
2019-01-10T15:58:18.949Z,99290.15
2019-01-10T16:00:51.213Z,99292.73
2019-01-10T16:03:22.675Z,99286.64
2019-01-10T16:05:53.163Z,99292.68
2019-01-10T16:08:24.025Z,99290.52
2019-01-10T16:10:54.475Z,99296.14
2019-01-10T16:13:25.506Z,99294.02
2019-01-10T16:15:54.649Z,99291.85
2019-01-10T16:18:23.867Z,99304.70
2019-01-10T16:20:53.075Z,99303.33
2019-01-10T16:23:22.154Z,99306.37
2019-01-10T16:25:51.089Z,99315.52
2019-01-10T16:28:21.951Z,99310.32
2019-01-10T16:30:52.887Z,99311.61
2019-01-10T16:33:23.914Z,99317.69
2019-01-10T16:35:53.861Z,99307.78
2019-01-10T16:38:24.591Z,99309.13
2019-01-10T16:40:54.072Z,99312.17
2019-01-10T16:43:28.047Z,99318.62
2019-01-10T16:45:58.490Z,99309.13
2019-01-10T16:48:30.759Z,99315.11
2019-01-10T16:51:02.308Z,99310.19
2019-01-10T16:53:33.192Z,99309.72
2019-01-10T16:56:04.322Z,99308.89
2019-01-10T16:58:38.597Z,99313.13
2019-01-10T17:01:07.545Z,99309.31
2019-01-10T17:03:49.037Z,99308.44
2019-01-10T17:06:25.276Z,99305.86
2019-01-10T17:08:56.136Z,99315.34
2019-01-10T17:11:27.802Z,99308.80
2019-01-10T17:13:59.221Z,99310.73
2019-01-10T17:16:31.084Z,99310.86
2019-01-10T17:19:03.463Z,99308.23
2019-01-10T17:21:38.192Z,99306.02
2019-01-10T17:24:11.058Z,99309.42
2019-01-10T17:26:41.979Z,99307.17
2019-01-10T17:29:14.031Z,99304.59
2019-01-10T17:31:50.455Z,99305.09
2019-01-10T17:34:22.699Z,99308.00
2019-01-10T17:36:54.444Z,99309.88
2019-01-10T17:39:25.785Z,99315.61
2019-01-10T17:41:57.118Z,99314.31
2019-01-10T17:44:29.020Z,99318.55
2019-01-10T17:47:01.398Z,99317.63
2019-01-10T17:49:33.000Z,99317.02
2019-01-10T17:52:14.592Z,99321.25
2019-01-10T17:54:49.333Z,99319.77
2019-01-10T17:57:31.065Z,99318.80
2019-01-10T18:00:03.685Z,99320.55
2019-01-10T18:02:34.506Z,99322.20
2019-01-10T18:05:27.921Z,99320.91
2019-01-10T18:08:03.478Z,99320.91
2019-01-10T18:10:34.099Z,99320.95
2019-01-10T18:13:04.933Z,99325.65
2019-01-10T18:15:35.252Z,99327.25
2019-01-10T18:18:04.466Z,99322.42
2019-01-10T18:20:40.776Z,99311.18
2019-01-10T18:23:09.772Z,99315.41
2019-01-10T18:25:38.811Z,99300.99
2019-01-10T18:28:08.436Z,99303.38
2019-01-10T18:30:43.127Z,99310.23
2019-01-10T18:33:08.273Z,99302.05
2019-01-10T18:35:37.440Z,99304.20
2019-01-10T18:38:06.577Z,99306.37
2019-01-10T18:40:36.603Z,99309.30
2019-01-10T18:43:08.152Z,99314.92
2019-01-10T18:45:37.116Z,99311.52
2019-01-10T18:48:07.227Z,99316.20
2019-01-10T18:50:39.297Z,99316.63
2019-01-10T18:53:12.768Z,99312.59
2019-01-10T18:55:45.568Z,99318.34
2019-01-10T18:58:15.008Z,99322.25
2019-01-10T19:00:48.395Z,99326.18
2019-01-10T19:03:18.390Z,99328.39
2019-01-10T19:05:50.396Z,99330.99
2019-01-10T19:08:19.441Z,99334.48
2019-01-10T19:10:49.134Z,99342.47
2019-01-10T19:13:18.975Z,99339.18
2019-01-10T19:15:47.894Z,99344.86
2019-01-10T19:18:16.677Z,99347.70
2019-01-10T19:20:50.206Z,99335.70
2019-01-10T19:23:20.583Z,99333.53
2019-01-10T19:25:49.971Z,99328.27
2019-01-10T19:28:29.240Z,99333.42
2019-01-10T19:31:02.896Z,99335.18
2019-01-10T19:33:35.931Z,99350.28
2019-01-10T19:36:05.586Z,99350.66
2019-01-10T19:38:36.492Z,99345.63
2019-01-10T19:41:06.463Z,99342.58
2019-01-10T19:43:38.263Z,99344.55
2019-01-10T19:46:12.255Z,99341.97
2019-01-10T19:48:41.476Z,99340.22
2019-01-10T19:51:12.027Z,99343.63
2019-01-10T19:53:42.342Z,99339.76
2019-01-10T19:56:11.438Z,99342.44
2019-01-10T19:58:41.308Z,99343.87
2019-01-10T20:01:11.418Z,99345.52
2019-01-10T20:03:41.236Z,99338.58
2019-01-10T20:06:12.011Z,99346.30
2019-01-10T20:08:41.243Z,99345.32
2019-01-10T20:11:11.106Z,99338.83
2019-01-10T20:13:42.549Z,99339.19
2019-01-10T20:16:12.807Z,99338.94
2019-01-10T20:18:41.798Z,99332.71
2019-01-10T20:21:10.820Z,99341.27
2019-01-10T20:23:42.251Z,99340.03
2019-01-10T20:26:11.698Z,99346.47
2019-01-10T20:28:42.281Z,99344.30
2019-01-10T20:31:11.452Z,99344.19
2019-01-10T20:33:41.434Z,99345.34
2019-01-10T20:36:11.331Z,99336.57
2019-01-10T20:38:43.086Z,99329.66
2019-01-10T20:41:12.255Z,99333.06
2019-01-10T20:43:42.705Z,99336.78
2019-01-10T20:46:11.788Z,99342.29
2019-01-10T20:48:40.808Z,99345.33
2019-01-10T20:51:12.047Z,99352.70
2019-01-10T20:53:44.250Z,99346.67
2019-01-10T20:56:15.802Z,99338.89
2019-01-10T20:58:44.967Z,99336.47
2019-01-10T21:01:13.998Z,99347.18
2019-01-10T21:03:45.088Z,99344.96
2019-01-10T21:06:15.508Z,99343.20
2019-01-10T21:08:44.624Z,99345.98
2019-01-10T21:11:13.802Z,99351.55
2019-01-10T21:13:49.717Z,99352.78
2019-01-10T21:16:22.134Z,99358.59
2019-01-10T21:18:53.066Z,99361.79
2019-01-10T21:21:24.603Z,99359.09
2019-01-10T21:23:53.784Z,99353.80
2019-01-10T21:26:24.052Z,99344.73
2019-01-10T21:28:54.369Z,99349.83
2019-01-10T21:31:23.422Z,99338.51
2019-01-10T21:33:52.742Z,99345.35
2019-01-10T21:36:21.684Z,99350.19
2019-01-10T21:38:51.330Z,99347.25
2019-01-10T21:41:24.069Z,99348.95
2019-01-10T21:43:53.256Z,99348.54
2019-01-10T21:46:22.465Z,99343.25
2019-01-10T21:48:51.548Z,99332.89
2019-01-10T21:51:20.330Z,99337.11
2019-01-10T21:53:50.417Z,99336.64
2019-01-10T21:56:19.557Z,99337.41
2019-01-10T21:58:51.354Z,99340.09
2019-01-10T22:01:20.403Z,99343.34
2019-01-10T22:03:50.691Z,99334.42
2019-01-10T22:06:20.582Z,99327.58
2019-01-10T22:08:49.658Z,99330.15
2019-01-10T22:11:18.607Z,99330.56
2019-01-10T22:13:47.716Z,99329.06
2019-01-10T22:16:18.112Z,99330.23
2019-01-10T22:18:47.116Z,99329.06
2019-01-10T22:21:16.138Z,99325.77
2019-01-10T22:23:45.132Z,99325.09
2019-01-10T22:26:14.706Z,99331.99
2019-01-10T22:28:43.715Z,99328.48
2019-01-10T22:31:12.543Z,99328.48
2019-01-10T22:33:41.577Z,99328.13
2019-01-10T22:36:11.101Z,99332.87
2019-01-10T22:38:39.951Z,99335.91
2019-01-10T22:41:08.850Z,99338.89
2019-01-10T22:43:37.806Z,99330.77
2019-01-10T22:46:08.586Z,99328.25
2019-01-10T22:48:37.559Z,99332.25
2019-01-10T22:51:06.453Z,99335.82
2019-01-10T22:53:35.318Z,99334.94
2019-01-10T22:56:05.753Z,99335.88
2019-01-10T22:58:46.726Z,99332.63
2019-01-10T23:01:55.459Z,99328.30
2019-01-10T23:04:34.879Z,99321.52
2019-01-10T23:07:03.843Z,99316.31
2019-01-10T23:09:32.742Z,99315.61
2019-01-10T23:12:01.516Z,99314.78
2019-01-10T23:14:30.302Z,99316.13
2019-01-10T23:16:59.259Z,99317.36
2019-01-10T23:19:28.280Z,99310.98
2019-01-10T23:21:59.201Z,99312.00
2019-01-10T23:24:28.157Z,99319.31
2019-01-10T23:26:57.108Z,99310.36
2019-01-10T23:29:32.789Z,99314.58
2019-01-10T23:32:07.506Z,99312.05
2019-01-10T23:34:36.386Z,99308.31
2019-01-10T23:37:05.575Z,99306.23
2019-01-10T23:39:34.494Z,99303.30
2019-01-10T23:42:03.529Z,99300.84
2019-01-10T23:44:32.300Z,99301.30
2019-01-10T23:47:01.705Z,99299.55
2019-01-10T23:49:30.581Z,99294.87
2019-01-10T23:51:59.373Z,99296.30
2019-01-10T23:54:28.214Z,99295.94
2019-01-10T23:56:57.008Z,99291.61
2019-01-10T23:59:25.871Z,99291.20
